Time;durP1;ratioP1;P1;durP2;ratioP2;P2;SDS_P1;SDS_P2;PMS_P1;PMS_P2;Temp;Humidity;BMP_temperature;BMP_pressure;BME280_temperature;BME280_humidity;BME280_pressure;Samples;Min_cycle;Max_cycle;Signal;HPM_P1;HPM_P2
2023/03/06 00:02:22;;;;;;;1.35;0.47;;;;;;;;;;5135411;27;20070;-60
2023/03/06 00:04:48;;;;;;;0.95;0.60;;;;;;;;;;5135289;27;20051;-61
2023/03/06 00:07:14;;;;;;;1.10;0.20;;;;;;;;;;5134075;27;20043;-59
2023/03/06 00:09:40;;;;;;;0.45;0.30;;;;;;;;;;5133708;27;20507;-60
2023/03/06 00:12:06;;;;;;;0.47;0.40;;;;;;;;;;5132871;27;20045;-59
2023/03/06 00:14:32;;;;;;;1.77;0.40;;;;;;;;;;5131772;27;20111;-61
2023/03/06 00:16:58;;;;;;;1.35;0.30;;;;;;;;;;5134549;27;20046;-60
2023/03/06 00:19:24;;;;;;;1.27;0.30;;;;;;;;;;5133588;27;20034;-59
2023/03/06 00:21:50;;;;;;;0.10;0.10;;;;;;;;;;5135356;27;20039;-59
2023/03/06 00:24:16;;;;;;;0.20;0.20;;;;;;;;;;5134450;27;20210;-61
2023/03/06 00:26:42;;;;;;;0.20;0.20;;;;;;;;;;5130328;27;20319;-61
2023/03/06 00:29:08;;;;;;;0.20;0.15;;;;;;;;;;5133902;27;20425;-59
2023/03/06 00:31:34;;;;;;;0.25;0.25;;;;;;;;;;5131157;27;20146;-58
2023/03/06 00:34:01;;;;;;;0.13;0.10;;;;;;;;;;5134180;27;20300;-59
2023/03/06 00:36:27;;;;;;;0.40;0.30;;;;;;;;;;5136029;27;20070;-59
2023/03/06 00:38:53;;;;;;;0.47;0.13;;;;;;;;;;5132459;27;20130;-59
2023/03/06 00:41:19;;;;;;;0.20;0.15;;;;;;;;;;5134138;27;20070;-60
2023/03/06 00:43:45;;;;;;;0.10;0.10;;;;;;;;;;5134057;27;20034;-61
2023/03/06 00:46:11;;;;;;;0.20;0.10;;;;;;;;;;5131879;27;20191;-60
2023/03/06 00:48:37;;;;;;;0.10;0.10;;;;;;;;;;5132332;27;20056;-59
2023/03/06 00:51:03;;;;;;;0.22;0.10;;;;;;;;;;5136817;27;20064;-59
2023/03/06 00:53:29;;;;;;;0.13;0.13;;;;;;;;;;5132104;27;20054;-59
2023/03/06 00:55:55;;;;;;;0.32;0.20;;;;;;;;;;5135165;27;20031;-60
2023/03/06 00:58:21;;;;;;;1.95;0.57;;;;;;;;;;5135154;27;20042;-59
2023/03/06 01:00:47;;;;;;;0.45;0.20;;;;;;;;;;5133284;27;20489;-60
2023/03/06 01:03:13;;;;;;;0.20;0.20;;;;;;;;;;5128654;27;20043;-61
2023/03/06 01:05:39;;;;;;;0.28;0.10;;;;;;;;;;5133164;27;20050;-61
2023/03/06 01:08:07;;;;;;;0.22;0.10;;;;;;;;;;5133719;27;20569;-59
2023/03/06 01:10:33;;;;;;;0.15;0.10;;;;;;;;;;5132586;27;20799;-58
2023/03/06 01:12:59;;;;;;;0.35;0.20;;;;;;;;;;5135570;27;20131;-61
2023/03/06 01:15:25;;;;;;;1.20;0.40;;;;;;;;;;5134168;27;20051;-61
2023/03/06 01:17:53;;;;;;;0.10;0.10;;;;;;;;;;5134407;27;20046;-61
2023/03/06 01:20:19;;;;;;;0.32;0.13;;;;;;;;;;5132550;27;20047;-58
2023/03/06 01:22:45;;;;;;;0.65;0.43;;;;;;;;;;5132335;27;20642;-59
2023/03/06 01:25:11;;;;;;;0.20;0.20;;;;;;;;;;5132057;27;20397;-59
2023/03/06 01:27:37;;;;;;;0.32;0.10;;;;;;;;;;5131382;27;20505;-61
2023/03/06 01:30:04;;;;;;;0.75;0.20;;;;;;;;;;5133274;27;20074;-59
2023/03/06 01:32:30;;;;;;;0.40;0.10;;;;;;;;;;5133787;27;20130;-59
2023/03/06 01:34:57;;;;;;;0.20;0.00;;;;;;;;;;5136837;27;20039;-59
2023/03/06 01:37:23;;;;;;;0.00;0.00;;;;;;;;;;5136894;27;20119;-60
2023/03/06 01:39:49;;;;;;;0.08;0.08;;;;;;;;;;5137513;27;20138;-60
2023/03/06 01:42:15;;;;;;;0.25;0.10;;;;;;;;;;5132845;27;20125;-58
2023/03/06 01:45:00;;;;;;;0.20;0.20;;;;;;;;;;5133226;27;20046;-59
2023/03/06 01:47:26;;;;;;;0.10;0.10;;;;;;;;;;5133828;27;20054;-59
2023/03/06 01:49:52;;;;;;;1.35;0.30;;;;;;;;;;5134225;27;20043;-60
2023/03/06 01:52:21;;;;;;;0.65;0.40;;;;;;;;;;5136054;27;20047;-59
2023/03/06 01:54:52;;;;;;;0.30;0.30;;;;;;;;;;5135067;27;20062;-60
2023/03/06 01:57:20;;;;;;;0.20;0.20;;;;;;;;;;5132935;27;20099;-62
2023/03/06 01:59:47;;;;;;;0.30;0.30;;;;;;;;;;5134619;27;20175;-59
2023/03/06 02:02:14;;;;;;;0.20;0.20;;;;;;;;;;5133540;27;20035;-59
2023/03/06 02:04:41;;;;;;;0.30;0.15;;;;;;;;;;5134551;27;20038;-60
2023/03/06 02:07:08;;;;;;;0.57;0.20;;;;;;;;;;5131508;27;20046;-60
2023/03/06 02:09:35;;;;;;;1.55;0.20;;;;;;;;;;5134697;27;20045;-59
2023/03/06 02:12:01;;;;;;;2.38;0.43;;;;;;;;;;5134178;27;20106;-59
2023/03/06 02:14:28;;;;;;;0.68;0.32;;;;;;;;;;5136297;27;20413;-60
2023/03/06 02:16:54;;;;;;;0.20;0.20;;;;;;;;;;5133275;27;20447;-61
2023/03/06 02:19:20;;;;;;;0.85;0.20;;;;;;;;;;5133508;27;20099;-59
2023/03/06 02:21:46;;;;;;;0.20;0.20;;;;;;;;;;5133864;27;20070;-59
2023/03/06 02:24:12;;;;;;;0.20;0.20;;;;;;;;;;5132792;27;20123;-60
2023/03/06 02:26:38;;;;;;;0.30;0.20;;;;;;;;;;5133590;27;20102;-61
2023/03/06 02:29:04;;;;;;;0.10;0.10;;;;;;;;;;5132091;27;20031;-61
2023/03/06 02:31:32;;;;;;;0.10;0.10;;;;;;;;;;5132567;27;20042;-59
2023/03/06 02:34:06;;;;;;;0.20;0.20;;;;;;;;;;5130464;27;20038;-59
2023/03/06 02:36:34;;;;;;;0.10;0.10;;;;;;;;;;5135649;27;20170;-59
2023/03/06 02:39:00;;;;;;;0.20;0.15;;;;;;;;;;5133597;27;20077;-60
2023/03/06 02:41:26;;;;;;;0.52;0.30;;;;;;;;;;5132915;27;20043;-59
2023/03/06 02:43:53;;;;;;;0.32;0.32;;;;;;;;;;5132862;27;20050;-61
2023/03/06 02:46:19;;;;;;;0.17;0.17;;;;;;;;;;5135085;27;20041;-59
2023/03/06 02:48:45;;;;;;;0.30;0.20;;;;;;;;;;5136026;27;20482;-61
2023/03/06 02:51:11;;;;;;;0.10;0.10;;;;;;;;;;5133845;27;20039;-60
2023/03/06 02:53:37;;;;;;;0.47;0.10;;;;;;;;;;5134403;27;20050;-61
2023/03/06 02:56:03;;;;;;;0.17;0.17;;;;;;;;;;5136925;27;20520;-59
2023/03/06 02:58:29;;;;;;;0.13;0.13;;;;;;;;;;5134437;27;20074;-59
2023/03/06 03:00:55;;;;;;;0.10;0.10;;;;;;;;;;5133729;27;20122;-62
2023/03/06 03:03:21;;;;;;;0.10;0.10;;;;;;;;;;5134842;27;20050;-61
2023/03/06 03:05:47;;;;;;;0.10;0.10;;;;;;;;;;5136549;27;20038;-59
2023/03/06 03:08:13;;;;;;;0.10;0.10;;;;;;;;;;5136362;27;20126;-61
2023/03/06 03:10:39;;;;;;;0.03;0.03;;;;;;;;;;5134623;27;20106;-60
2023/03/06 03:13:05;;;;;;;0.10;0.10;;;;;;;;;;5137329;27;20043;-61
2023/03/06 03:15:31;;;;;;;0.10;0.10;;;;;;;;;;5134588;27;20108;-59
2023/03/06 03:17:57;;;;;;;0.10;0.10;;;;;;;;;;5135872;27;20043;-59
2023/03/06 03:20:23;;;;;;;0.30;0.30;;;;;;;;;;5132697;27;20100;-60
2023/03/06 03:22:50;;;;;;;0.00;0.00;;;;;;;;;;5135751;27;20476;-61
2023/03/06 03:25:16;;;;;;;0.10;0.10;;;;;;;;;;5133125;27;20039;-58
2023/03/06 03:27:42;;;;;;;0.10;0.10;;;;;;;;;;5135388;27;20047;-59
2023/03/06 03:30:08;;;;;;;0.10;0.10;;;;;;;;;;5130483;27;20041;-61
2023/03/06 03:32:34;;;;;;;0.20;0.20;;;;;;;;;;5133287;27;20042;-61
2023/03/06 03:35:00;;;;;;;0.10;0.10;;;;;;;;;;5134827;27;20099;-59
2023/03/06 03:37:26;;;;;;;0.00;0.00;;;;;;;;;;5134498;27;20047;-59
2023/03/06 03:39:52;;;;;;;0.10;0.10;;;;;;;;;;5136338;27;20035;-61
2023/03/06 03:42:18;;;;;;;0.20;0.20;;;;;;;;;;5135471;27;20497;-61
2023/03/06 03:44:44;;;;;;;0.10;0.10;;;;;;;;;;5135220;27;20071;-59
2023/03/06 03:47:10;;;;;;;0.10;0.10;;;;;;;;;;5134383;27;20038;-59
2023/03/06 03:49:36;;;;;;;0.00;0.00;;;;;;;;;;5134248;27;20071;-60
2023/03/06 03:52:02;;;;;;;0.32;0.10;;;;;;;;;;5115088;27;20159;-61
2023/03/06 03:54:28;;;;;;;0.10;0.10;;;;;;;;;;5114841;27;20464;-59
2023/03/06 03:56:55;;;;;;;0.00;0.00;;;;;;;;;;5134842;27;20103;-59
2023/03/06 03:59:21;;;;;;;0.10;0.10;;;;;;;;;;5135147;27;20041;-59
2023/03/06 04:01:47;;;;;;;0.20;0.20;;;;;;;;;;5131637;27;20043;-60
2023/03/06 04:04:13;;;;;;;0.10;0.10;;;;;;;;;;5133554;27;20038;-59
2023/03/06 04:06:39;;;;;;;0.10;0.10;;;;;;;;;;5132267;27;20697;-59
2023/03/06 04:09:05;;;;;;;0.00;0.00;;;;;;;;;;5133302;27;20121;-59
2023/03/06 04:11:31;;;;;;;0.10;0.10;;;;;;;;;;5133801;27;20075;-59
2023/03/06 04:13:57;;;;;;;0.10;0.10;;;;;;;;;;5134869;27;20081;-58
2023/03/06 04:16:23;;;;;;;0.05;0.05;;;;;;;;;;5137361;27;20038;-61
2023/03/06 04:18:49;;;;;;;0.10;0.10;;;;;;;;;;5137180;27;20437;-61
2023/03/06 04:21:15;;;;;;;0.10;0.10;;;;;;;;;;5136676;27;20045;-61
2023/03/06 04:23:41;;;;;;;0.90;0.03;;;;;;;;;;5136000;27;20122;-58
2023/03/06 04:26:07;;;;;;;0.10;0.10;;;;;;;;;;5134487;27;20511;-59
2023/03/06 04:28:33;;;;;;;0.10;0.10;;;;;;;;;;5135206;27;20049;-60
2023/03/06 04:30:59;;;;;;;0.00;0.00;;;;;;;;;;5134618;27;20043;-59
2023/03/06 04:33:25;;;;;;;0.00;0.00;;;;;;;;;;5135106;27;20592;-59
2023/03/06 04:35:51;;;;;;;0.28;0.10;;;;;;;;;;5132703;27;20038;-59
2023/03/06 04:38:17;;;;;;;0.00;0.00;;;;;;;;;;5132547;27;20039;-59
2023/03/06 04:40:43;;;;;;;0.10;0.10;;;;;;;;;;5111801;27;20091;-60
2023/03/06 04:43:09;;;;;;;0.10;0.10;;;;;;;;;;5129780;27;20043;-59
2023/03/06 04:45:35;;;;;;;0.10;0.10;;;;;;;;;;5131387;27;21208;-59
2023/03/06 04:48:02;;;;;;;0.10;0.10;;;;;;;;;;5131765;27;20468;-60
2023/03/06 04:50:31;;;;;;;0.10;0.10;;;;;;;;;;5132634;27;20108;-61
2023/03/06 04:52:58;;;;;;;0.22;0.00;;;;;;;;;;5130919;27;20055;-59
2023/03/06 04:55:24;;;;;;;0.10;0.10;;;;;;;;;;5130834;27;20050;-58
2023/03/06 04:57:50;;;;;;;0.30;0.20;;;;;;;;;;5130677;27;20039;-59
2023/03/06 05:00:18;;;;;;;0.05;0.05;;;;;;;;;;5133265;27;20074;-60
2023/03/06 05:02:44;;;;;;;0.10;0.10;;;;;;;;;;5133906;27;20039;-61
2023/03/06 05:05:11;;;;;;;0.38;0.20;;;;;;;;;;5130345;27;20047;-59
2023/03/06 05:07:38;;;;;;;0.20;0.20;;;;;;;;;;5133138;27;20059;-59
2023/03/06 05:10:04;;;;;;;0.10;0.10;;;;;;;;;;5134088;27;20049;-59
2023/03/06 05:12:30;;;;;;;0.38;0.20;;;;;;;;;;5137005;27;20046;-59
2023/03/06 05:14:57;;;;;;;0.20;0.20;;;;;;;;;;5135149;27;20050;-61
2023/03/06 05:17:23;;;;;;;0.20;0.20;;;;;;;;;;5134700;27;20046;-60
2023/03/06 05:19:49;;;;;;;0.20;0.20;;;;;;;;;;5136744;27;20413;-61
2023/03/06 05:22:15;;;;;;;0.13;0.13;;;;;;;;;;5132892;27;20069;-61
2023/03/06 05:24:41;;;;;;;0.17;0.17;;;;;;;;;;5135433;27;20038;-61
2023/03/06 05:27:07;;;;;;;0.20;0.20;;;;;;;;;;5141204;27;20103;-60
2023/03/06 05:29:33;;;;;;;0.10;0.10;;;;;;;;;;5135775;27;20058;-60
2023/03/06 05:31:59;;;;;;;0.22;0.13;;;;;;;;;;5141213;27;20053;-59
2023/03/06 05:34:25;;;;;;;0.10;0.10;;;;;;;;;;5135990;27;20059;-61
2023/03/06 05:36:51;;;;;;;0.10;0.10;;;;;;;;;;5136391;27;20046;-59
2023/03/06 05:39:17;;;;;;;0.20;0.20;;;;;;;;;;5138656;27;20043;-61
2023/03/06 05:41:43;;;;;;;0.10;0.10;;;;;;;;;;5134911;27;20534;-62
2023/03/06 05:44:09;;;;;;;0.00;0.00;;;;;;;;;;5137332;27;20077;-61
2023/03/06 05:46:35;;;;;;;0.10;0.10;;;;;;;;;;5137200;27;20736;-59
2023/03/06 05:49:01;;;;;;;0.20;0.20;;;;;;;;;;5140023;27;20050;-59
2023/03/06 05:51:27;;;;;;;0.10;0.10;;;;;;;;;;5135936;27;20051;-59
2023/03/06 05:53:53;;;;;;;0.20;0.20;;;;;;;;;;5134541;27;20039;-61
2023/03/06 05:56:20;;;;;;;0.10;0.10;;;;;;;;;;5133949;27;20122;-59
2023/03/06 05:58:47;;;;;;;0.00;0.00;;;;;;;;;;5134244;27;20573;-61
2023/03/06 06:01:14;;;;;;;0.10;0.10;;;;;;;;;;5138032;27;20066;-61
2023/03/06 06:03:40;;;;;;;0.10;0.10;;;;;;;;;;5136504;27;20038;-61
2023/03/06 06:06:07;;;;;;;0.20;0.20;;;;;;;;;;5141087;27;20043;-59
2023/03/06 06:08:34;;;;;;;0.10;0.10;;;;;;;;;;5133264;27;20492;-59
2023/03/06 06:11:00;;;;;;;0.10;0.10;;;;;;;;;;5139908;27;20584;-60
2023/03/06 06:13:26;;;;;;;0.00;0.00;;;;;;;;;;5138865;27;20469;-61
2023/03/06 06:15:52;;;;;;;0.00;0.00;;;;;;;;;;5136142;27;20042;-61
2023/03/06 06:18:18;;;;;;;0.10;0.10;;;;;;;;;;5136160;27;20657;-61
2023/03/06 06:20:44;;;;;;;0.00;0.00;;;;;;;;;;5135638;27;20043;-59
2023/03/06 06:23:10;;;;;;;0.10;0.10;;;;;;;;;;5133159;27;20047;-61
2023/03/06 06:25:37;;;;;;;0.25;0.17;;;;;;;;;;5136678;27;20402;-61
2023/03/06 06:28:03;;;;;;;0.20;0.10;;;;;;;;;;5120015;27;20065;-59
2023/03/06 06:30:29;;;;;;;0.20;0.20;;;;;;;;;;5135660;27;20066;-59
2023/03/06 06:32:55;;;;;;;0.22;0.22;;;;;;;;;;5135901;27;20050;-61
2023/03/06 06:35:21;;;;;;;0.20;0.20;;;;;;;;;;5133913;27;20047;-59
2023/03/06 06:37:47;;;;;;;0.25;0.25;;;;;;;;;;5137655;27;20115;-60
2023/03/06 06:40:14;;;;;;;0.20;0.15;;;;;;;;;;5136775;27;20536;-59
2023/03/06 06:42:40;;;;;;;0.32;0.30;;;;;;;;;;5137187;27;20042;-61
2023/03/06 06:45:06;;;;;;;0.20;0.20;;;;;;;;;;5139991;27;20042;-59
2023/03/06 06:47:33;;;;;;;0.00;0.00;;;;;;;;;;5134356;27;20169;-59
2023/03/06 06:49:59;;;;;;;0.20;0.13;;;;;;;;;;5135022;27;20062;-59
2023/03/06 06:52:25;;;;;;;0.10;0.10;;;;;;;;;;5133521;27;20640;-61
2023/03/06 06:54:51;;;;;;;0.20;0.17;;;;;;;;;;5137104;27;20397;-61
2023/03/06 06:57:17;;;;;;;0.10;0.10;;;;;;;;;;5136720;27;20045;-59
2023/03/06 06:59:43;;;;;;;0.20;0.10;;;;;;;;;;5138935;27;20035;-59
2023/03/06 07:02:11;;;;;;;0.40;0.40;;;;;;;;;;5136009;27;20046;-61
2023/03/06 07:04:38;;;;;;;0.50;0.50;;;;;;;;;;5134004;27;20611;-62
2023/03/06 07:07:04;;;;;;;0.50;0.50;;;;;;;;;;5138113;27;20049;-61
2023/03/06 07:09:30;;;;;;;0.77;0.70;;;;;;;;;;5137643;27;20050;-59
2023/03/06 07:11:56;;;;;;;0.60;0.60;;;;;;;;;;5137921;27;20099;-59
2023/03/06 07:14:22;;;;;;;0.77;0.60;;;;;;;;;;5137361;27;20035;-60
2023/03/06 07:16:48;;;;;;;0.77;0.60;;;;;;;;;;5135442;27;20045;-61
2023/03/06 07:19:14;;;;;;;0.65;0.65;;;;;;;;;;5138071;27;20462;-60
2023/03/06 07:21:40;;;;;;;0.52;0.52;;;;;;;;;;5134829;27;20057;-59
2023/03/06 07:24:06;;;;;;;0.70;0.60;;;;;;;;;;5120878;27;20050;-59
2023/03/06 07:26:32;;;;;;;0.75;0.75;;;;;;;;;;5135542;27;20195;-60
2023/03/06 07:28:58;;;;;;;0.73;0.70;;;;;;;;;;5132746;27;20057;-59
2023/03/06 07:31:25;;;;;;;0.80;0.80;;;;;;;;;;5137399;27;20616;-60
2023/03/06 07:33:52;;;;;;;1.00;0.90;;;;;;;;;;5135618;27;20581;-60
2023/03/06 07:36:18;;;;;;;1.00;0.90;;;;;;;;;;5136163;27;20788;-61
2023/03/06 07:38:44;;;;;;;1.65;0.70;;;;;;;;;;5136803;27;20043;-60
2023/03/06 07:41:12;;;;;;;0.90;0.90;;;;;;;;;;5137823;27;20522;-59
2023/03/06 07:43:42;;;;;;;1.00;0.93;;;;;;;;;;5133389;27;20125;-60
2023/03/06 07:46:08;;;;;;;0.73;0.60;;;;;;;;;;5136447;27;20047;-61
2023/03/06 07:48:35;;;;;;;0.63;0.63;;;;;;;;;;5133899;27;20043;-59
2023/03/06 07:51:02;;;;;;;1.70;0.95;;;;;;;;;;5136045;27;20288;-59
2023/03/06 07:53:29;;;;;;;0.80;0.63;;;;;;;;;;5136114;27;20645;-59
2023/03/06 07:55:55;;;;;;;0.85;0.60;;;;;;;;;;5137042;27;20432;-61
2023/03/06 07:58:21;;;;;;;0.65;0.50;;;;;;;;;;5130798;27;20134;-61
2023/03/06 08:00:47;;;;;;;0.80;0.80;;;;;;;;;;5134663;27;20035;-60
2023/03/06 08:03:14;;;;;;;0.63;0.60;;;;;;;;;;5136014;27;20042;-61
2023/03/06 08:05:40;;;;;;;0.80;0.80;;;;;;;;;;5133403;27;20043;-61
2023/03/06 08:08:06;;;;;;;1.13;0.80;;;;;;;;;;5134797;27;20054;-62
2023/03/06 08:10:32;;;;;;;0.80;0.80;;;;;;;;;;5135768;27;20039;-62
2023/03/06 08:12:58;;;;;;;1.02;0.80;;;;;;;;;;5132523;27;20549;-59
2023/03/06 08:15:24;;;;;;;1.08;0.85;;;;;;;;;;5132668;27;20050;-59
2023/03/06 08:17:51;;;;;;;1.20;1.00;;;;;;;;;;5135757;27;20133;-59
2023/03/06 08:20:17;;;;;;;1.45;1.20;;;;;;;;;;5133578;27;20038;-63
2023/03/06 08:22:43;;;;;;;0.90;0.90;;;;;;;;;;5130158;27;20095;-59
2023/03/06 08:25:10;;;;;;;1.40;0.90;;;;;;;;;;5135825;27;20078;-61
2023/03/06 08:27:36;;;;;;;0.82;0.80;;;;;;;;;;5133285;27;20086;-61
2023/03/06 08:30:02;;;;;;;0.88;0.88;;;;;;;;;;5131994;27;20145;-61
2023/03/06 08:32:28;;;;;;;0.93;0.90;;;;;;;;;;5134551;27;20047;-60
2023/03/06 08:34:54;;;;;;;0.80;0.80;;;;;;;;;;5133739;27;20397;-59
2023/03/06 08:37:20;;;;;;;1.08;1.00;;;;;;;;;;5137496;27;20054;-61
2023/03/06 08:39:46;;;;;;;1.05;0.93;;;;;;;;;;5134325;27;20258;-61
2023/03/06 08:42:13;;;;;;;1.13;1.02;;;;;;;;;;5138221;27;20042;-59
2023/03/06 08:44:39;;;;;;;1.33;0.90;;;;;;;;;;5135707;27;20039;-60
2023/03/06 08:47:06;;;;;;;0.93;0.90;;;;;;;;;;5138671;27;20553;-61
2023/03/06 08:49:32;;;;;;;2.10;1.63;;;;;;;;;;5144839;27;20047;-59
2023/03/06 08:51:58;;;;;;;0.93;0.82;;;;;;;;;;5147906;27;20074;-59
2023/03/06 08:54:24;;;;;;;1.27;0.77;;;;;;;;;;5136650;27;20070;-59
2023/03/06 08:56:50;;;;;;;1.60;0.90;;;;;;;;;;5132247;27;20070;-59
2023/03/06 08:59:16;;;;;;;0.60;0.60;;;;;;;;;;5130729;27;20047;-59
2023/03/06 09:01:43;;;;;;;0.60;0.60;;;;;;;;;;5135674;27;20087;-55
2023/03/06 09:04:10;;;;;;;0.70;0.70;;;;;;;;;;5136560;27;20098;-55
2023/03/06 09:06:38;;;;;;;1.05;0.90;;;;;;;;;;5130308;27;20051;-60
2023/03/06 09:09:04;;;;;;;0.73;0.70;;;;;;;;;;5149501;27;20074;-59
2023/03/06 09:11:30;;;;;;;0.50;0.50;;;;;;;;;;5150215;27;20092;-61
2023/03/06 09:13:56;;;;;;;0.80;0.70;;;;;;;;;;5151032;27;20082;-60
2023/03/06 09:16:23;;;;;;;1.23;0.52;;;;;;;;;;5150271;27;20054;-59
2023/03/06 09:18:52;;;;;;;1.38;0.55;;;;;;;;;;5148750;27;20412;-60
2023/03/06 09:21:19;;;;;;;0.50;0.50;;;;;;;;;;5139607;27;20459;-60
2023/03/06 09:23:45;;;;;;;0.40;0.40;;;;;;;;;;5133345;27;20083;-60
2023/03/06 09:26:11;;;;;;;0.52;0.52;;;;;;;;;;5138112;27;20088;-58
2023/03/06 09:28:38;;;;;;;0.60;0.60;;;;;;;;;;5148998;27;20053;-60
2023/03/06 09:31:11;;;;;;;0.70;0.70;;;;;;;;;;5128473;27;20090;-62
2023/03/06 09:33:37;;;;;;;0.57;0.40;;;;;;;;;;5128327;27;20569;-60
2023/03/06 09:36:04;;;;;;;1.15;0.45;;;;;;;;;;5130031;27;20398;-61
2023/03/06 09:38:30;;;;;;;0.30;0.30;;;;;;;;;;5142453;27;20042;-58
2023/03/06 09:40:59;;;;;;;0.40;0.38;;;;;;;;;;5145480;27;20457;-58
2023/03/06 09:43:28;;;;;;;0.30;0.30;;;;;;;;;;5140673;27;20090;-58
2023/03/06 09:45:54;;;;;;;0.20;0.20;;;;;;;;;;5141774;27;20039;-59
2023/03/06 09:48:24;;;;;;;2.38;0.40;;;;;;;;;;5152101;27;20583;-60
2023/03/06 09:50:54;;;;;;;0.40;0.32;;;;;;;;;;5150675;27;20042;-59
2023/03/06 09:53:28;;;;;;;0.43;0.30;;;;;;;;;;5158477;27;20137;-59
2023/03/06 09:56:01;;;;;;;0.22;0.22;;;;;;;;;;5153500;27;20039;-58
2023/03/06 09:58:28;;;;;;;1.75;0.45;;;;;;;;;;5152911;27;20114;-58
2023/03/06 10:01:06;;;;;;;0.60;0.30;;;;;;;;;;5149708;27;20047;-59
2023/03/06 10:03:44;;;;;;;0.30;0.30;;;;;;;;;;5131294;27;20042;-58
2023/03/06 10:06:10;;;;;;;0.47;0.25;;;;;;;;;;5133709;27;20101;-58
2023/03/06 10:08:42;;;;;;;0.43;0.20;;;;;;;;;;5127516;27;20497;-59
2023/03/06 10:11:10;;;;;;;0.20;0.20;;;;;;;;;;5131482;27;20543;-58
2023/03/06 10:13:38;;;;;;;0.35;0.22;;;;;;;;;;5132282;27;20047;-59
2023/03/06 10:16:23;;;;;;;0.17;0.13;;;;;;;;;;5127299;27;20050;-58
2023/03/06 10:18:49;;;;;;;0.40;0.40;;;;;;;;;;5130311;27;20068;-60
2023/03/06 10:21:21;;;;;;;0.20;0.20;;;;;;;;;;5128891;27;20417;-60
2023/03/06 10:23:58;;;;;;;1.85;0.20;;;;;;;;;;5126961;27;20078;-58
2023/03/06 10:26:26;;;;;;;1.23;0.30;;;;;;;;;;5110364;27;20046;-58
2023/03/06 10:28:52;;;;;;;0.40;0.10;;;;;;;;;;5129299;27;20035;-60
2023/03/06 10:31:22;;;;;;;1.00;0.20;;;;;;;;;;5130631;27;20434;-59
2023/03/06 10:34:00;;;;;;;0.52;0.38;;;;;;;;;;5125705;27;20134;-58
2023/03/06 10:36:28;;;;;;;1.30;0.40;;;;;;;;;;5131049;27;20051;-58
2023/03/06 10:38:58;;;;;;;0.70;0.30;;;;;;;;;;5127886;27;20038;-59
2023/03/06 10:41:28;;;;;;;0.57;0.15;;;;;;;;;;5128593;27;20096;-58
2023/03/06 10:44:00;;;;;;;0.30;0.10;;;;;;;;;;5134326;27;20043;-59
2023/03/06 10:46:28;;;;;;;0.40;0.10;;;;;;;;;;5130680;27;20051;-60
2023/03/06 10:48:58;;;;;;;0.38;0.22;;;;;;;;;;5128688;27;20047;-60
2023/03/06 10:51:24;;;;;;;0.65;0.30;;;;;;;;;;5129786;27;20039;-60
2023/03/06 10:53:52;;;;;;;0.90;0.30;;;;;;;;;;5142381;27;20078;-58
2023/03/06 10:56:39;;;;;;;1.85;0.47;;;;;;;;;;5142298;27;20047;-59
2023/03/06 10:59:20;;;;;;;2.40;0.52;;;;;;;;;;5147154;27;20046;-59
2023/03/06 11:01:48;;;;;;;0.52;0.30;;;;;;;;;;5154380;27;20491;-61
2023/03/06 11:04:33;;;;;;;2.30;0.45;;;;;;;;;;5158622;27;20117;-61
2023/03/06 11:07:13;;;;;;;0.43;0.20;;;;;;;;;;5129442;27;20126;-58
2023/03/06 11:09:40;;;;;;;0.20;0.20;;;;;;;;;;5148313;27;20061;-59
2023/03/06 11:12:24;;;;;;;0.30;0.10;;;;;;;;;;5153720;27;20432;-59
2023/03/06 11:15:07;;;;;;;0.38;0.30;;;;;;;;;;5151922;27;20053;-58
2023/03/06 11:17:34;;;;;;;0.10;0.10;;;;;;;;;;5157367;27;20091;-60
2023/03/06 11:20:20;;;;;;;1.85;0.20;;;;;;;;;;5140373;27;20544;-59
2023/03/06 11:23:09;;;;;;;0.20;0.20;;;;;;;;;;5137134;27;20042;-58
2023/03/06 11:25:41;;;;;;;1.45;0.20;;;;;;;;;;5122969;27;20055;-58
2023/03/06 11:28:27;;;;;;;0.22;0.22;;;;;;;;;;5127774;27;20093;-57
2023/03/06 11:30:56;;;;;;;0.47;0.30;;;;;;;;;;5125624;27;20693;-60
2023/03/06 11:33:27;;;;;;;3.22;0.60;;;;;;;;;;5136869;27;20042;-60
2023/03/06 11:35:58;;;;;;;1.23;0.60;;;;;;;;;;5112089;27;20409;-58
2023/03/06 11:38:32;;;;;;;2.47;0.80;;;;;;;;;;5118270;27;20051;-58
2023/03/06 11:40:59;;;;;;;1.58;0.60;;;;;;;;;;5145147;27;20088;-59
2023/03/06 11:43:44;;;;;;;1.00;0.80;;;;;;;;;;5145280;27;20638;-57
2023/03/06 11:46:16;;;;;;;1.60;0.60;;;;;;;;;;5145566;27;20135;-58
2023/03/06 11:48:45;;;;;;;1.15;0.98;;;;;;;;;;5145796;27;20504;-59
2023/03/06 11:51:18;;;;;;;1.10;0.93;;;;;;;;;;5145396;27;20180;-57
2023/03/06 11:53:44;;;;;;;1.45;0.70;;;;;;;;;;5139117;27;20049;-57
2023/03/06 11:56:21;;;;;;;2.30;0.90;;;;;;;;;;5126785;27;20043;-58
2023/03/06 11:59:06;;;;;;;2.28;0.77;;;;;;;;;;5133106;27;20050;-57
2023/03/06 12:01:35;;;;;;;3.03;0.75;;;;;;;;;;5138945;27;20490;-57
2023/03/06 12:04:10;;;;;;;4.50;1.02;;;;;;;;;;5144176;27;20493;-60
2023/03/06 12:06:39;;;;;;;1.30;0.77;;;;;;;;;;5138157;27;20659;-58
2023/03/06 12:09:11;;;;;;;2.17;0.60;;;;;;;;;;5144488;27;20046;-57
2023/03/06 12:11:48;;;;;;;0.57;0.40;;;;;;;;;;5150224;27;20121;-58
2023/03/06 12:14:17;;;;;;;1.73;0.40;;;;;;;;;;5154365;27;20043;-57
2023/03/06 12:16:53;;;;;;;1.73;0.80;;;;;;;;;;5153870;27;20042;-57
2023/03/06 12:19:38;;;;;;;1.85;0.52;;;;;;;;;;5156160;27;20057;-57
2023/03/06 12:22:23;;;;;;;2.60;0.70;;;;;;;;;;5156500;27;20043;-59
2023/03/06 12:24:56;;;;;;;0.80;0.40;;;;;;;;;;5157165;27;20044;-57
2023/03/06 12:27:45;;;;;;;0.73;0.60;;;;;;;;;;5154786;27;20057;-57
2023/03/06 12:30:23;;;;;;;1.45;0.73;;;;;;;;;;5156529;27;20496;-57
2023/03/06 12:33:01;;;;;;;0.75;0.40;;;;;;;;;;5154604;27;20691;-57
2023/03/06 12:35:47;;;;;;;0.75;0.60;;;;;;;;;;5155711;27;20034;-57
2023/03/06 12:38:32;;;;;;;1.88;0.30;;;;;;;;;;5097672;27;20046;-57
2023/03/06 12:41:03;;;;;;;0.77;0.20;;;;;;;;;;5151292;27;20058;-60
2023/03/06 12:43:48;;;;;;;2.38;0.45;;;;;;;;;;5142545;27;20150;-57
2023/03/06 12:46:25;;;;;;;1.83;0.40;;;;;;;;;;5145033;27;20539;-58
2023/03/06 12:49:08;;;;;;;0.50;0.40;;;;;;;;;;5145922;27;20042;-58
2023/03/06 12:51:34;;;;;;;0.65;0.50;;;;;;;;;;5146183;27;20184;-58
2023/03/06 12:54:02;;;;;;;1.48;0.65;;;;;;;;;;5145187;27;20057;-58
2023/03/06 12:56:29;;;;;;;1.65;0.50;;;;;;;;;;5146244;27;20409;-60
2023/03/06 12:58:56;;;;;;;3.53;0.60;;;;;;;;;;5146350;27;20054;-59
2023/03/06 13:01:36;;;;;;;0.57;0.55;;;;;;;;;;5144784;27;20086;-59
2023/03/06 13:04:11;;;;;;;1.80;0.70;;;;;;;;;;5145444;27;20834;-60
2023/03/06 13:06:56;;;;;;;2.40;0.90;;;;;;;;;;5135852;27;20070;-58
2023/03/06 13:09:41;;;;;;;2.33;0.60;;;;;;;;;;5142569;27;20039;-58
2023/03/06 13:12:25;;;;;;;1.73;0.55;;;;;;;;;;5130173;27;20375;-58
2023/03/06 13:14:56;;;;;;;1.13;0.80;;;;;;;;;;5132554;27;20039;-58
2023/03/06 13:17:22;;;;;;;1.42;0.57;;;;;;;;;;5135651;27;20078;-59
2023/03/06 13:19:49;;;;;;;1.25;0.40;;;;;;;;;;5125409;27;20074;-60
2023/03/06 13:22:26;;;;;;;0.35;0.35;;;;;;;;;;5126856;27;20035;-60
2023/03/06 13:25:21;;;;;;;0.55;0.22;;;;;;;;;;5129452;27;20077;-58
2023/03/06 13:27:53;;;;;;;1.75;0.57;;;;;;;;;;5121333;27;20089;-58
2023/03/06 13:30:21;;;;;;;1.58;0.32;;;;;;;;;;5150763;27;20141;-58
2023/03/06 13:32:48;;;;;;;1.02;0.40;;;;;;;;;;5135437;27;20130;-60
2023/03/06 13:35:30;;;;;;;1.00;0.60;;;;;;;;;;5136066;27;20146;-60
2023/03/06 13:37:56;;;;;;;;;;;;;;;;;;5150905;27;20587;-58
2023/03/06 13:40:27;;;;;;;1.58;0.40;;;;;;;;;;5144279;27;20002;-58
2023/03/06 13:42:58;;;;;;;4.43;0.52;;;;;;;;;;5141106;27;20051;-58
2023/03/06 13:45:37;;;;;;;0.70;0.30;;;;;;;;;;5151209;27;20039;-60
2023/03/06 13:48:04;;;;;;;1.23;0.55;;;;;;;;;;5149598;27;20051;-58
2023/03/06 13:50:32;;;;;;;0.70;0.70;;;;;;;;;;5142485;27;20477;-58
2023/03/06 13:53:04;;;;;;;1.48;0.40;;;;;;;;;;5140583;27;20077;-58
2023/03/06 13:55:30;;;;;;;2.53;0.60;;;;;;;;;;5143874;27;20137;-58
2023/03/06 13:58:26;;;;;;;0.77;0.47;;;;;;;;;;5137048;27;20507;-60
2023/03/06 14:00:57;;;;;;;1.17;0.55;;;;;;;;;;5039043;27;20053;-58
2023/03/06 14:03:41;;;;;;;1.70;0.30;;;;;;;;;;5129223;27;20082;-58
2023/03/06 14:06:26;;;;;;;1.33;0.65;;;;;;;;;;5128170;27;20043;-60
2023/03/06 14:08:52;;;;;;;0.20;0.20;;;;;;;;;;5129225;27;20047;-58
2023/03/06 14:11:21;;;;;;;0.68;0.30;;;;;;;;;;5129590;27;20070;-58
2023/03/06 14:13:49;;;;;;;0.30;0.30;;;;;;;;;;5127728;27;20609;-58
2023/03/06 14:16:21;;;;;;;0.60;0.38;;;;;;;;;;5128352;27;20051;-58
2023/03/06 14:18:49;;;;;;;2.65;0.55;;;;;;;;;;5134168;27;20123;-60
2023/03/06 14:21:20;;;;;;;1.35;0.50;;;;;;;;;;5134381;27;20034;-58
2023/03/06 14:23:56;;;;;;;0.65;0.38;;;;;;;;;;5132241;27;20497;-59
2023/03/06 14:26:23;;;;;;;1.27;0.45;;;;;;;;;;5141380;27;20035;-58
2023/03/06 14:28:52;;;;;;;2.08;0.32;;;;;;;;;;5139132;27;20125;-58
2023/03/06 14:31:23;;;;;;;0.57;0.28;;;;;;;;;;5143375;27;20316;-57
2023/03/06 14:33:49;;;;;;;0.38;0.20;;;;;;;;;;5132533;27;20043;-57
2023/03/06 14:36:16;;;;;;;0.40;0.40;;;;;;;;;;5142842;27;20434;-58
2023/03/06 14:38:51;;;;;;;0.30;0.30;;;;;;;;;;5148051;27;20401;-59
2023/03/06 14:41:43;;;;;;;0.68;0.60;;;;;;;;;;5147850;27;20057;-58
2023/03/06 14:44:09;;;;;;;1.48;0.52;;;;;;;;;;5124498;27;20051;-59
2023/03/06 14:46:35;;;;;;;0.55;0.40;;;;;;;;;;5137141;27;20035;-58
2023/03/06 14:49:05;;;;;;;0.85;0.40;;;;;;;;;;5149093;27;20386;-59
2023/03/06 14:51:34;;;;;;;0.70;0.50;;;;;;;;;;5135707;27;20509;-58
2023/03/06 14:54:01;;;;;;;2.55;0.60;;;;;;;;;;5135947;27;20047;-60